sensor_id;sensor_type;location;lat;lon;timestamp;P1;durP1;ratioP1;P2;durP2;ratioP2
70363;SDS011;57785;43.898;1.886;2022-07-22T06:02:59;5.53;;;4.20;;
70363;SDS011;57785;43.898;1.886;2022-07-22T06:05:26;7.00;;;4.15;;
70363;SDS011;57785;43.898;1.886;2022-07-22T06:07:52;7.80;;;4.47;;
70363;SDS011;57785;43.898;1.886;2022-07-22T06:10:18;9.10;;;4.35;;
70363;SDS011;57785;43.898;1.886;2022-07-22T06:12:44;6.63;;;3.90;;
70363;SDS011;57785;43.898;1.886;2022-07-22T06:15:10;7.30;;;4.20;;
70363;SDS011;57785;43.898;1.886;2022-07-22T06:17:36;6.25;;;3.90;;
70363;SDS011;57785;43.898;1.886;2022-07-22T06:20:02;6.40;;;4.00;;
70363;SDS011;57785;43.898;1.886;2022-07-22T06:22:28;7.28;;;4.10;;
70363;SDS011;57785;43.898;1.886;2022-07-22T06:24:54;9.23;;;4.18;;
70363;SDS011;57785;43.898;1.886;2022-07-22T06:27:20;6.63;;;4.90;;
70363;SDS011;57785;43.898;1.886;2022-07-22T06:29:46;8.10;;;4.55;;
70363;SDS011;57785;43.898;1.886;2022-07-22T06:32:12;9.88;;;4.57;;
70363;SDS011;57785;43.898;1.886;2022-07-22T06:34:38;24.33;;;5.03;;
70363;SDS011;57785;43.898;1.886;2022-07-22T06:37:05;28.02;;;5.20;;
70363;SDS011;57785;43.898;1.886;2022-07-22T06:39:31;16.83;;;4.80;;
70363;SDS011;57785;43.898;1.886;2022-07-22T06:41:57;10.40;;;4.60;;
70363;SDS011;57785;43.898;1.886;2022-07-22T06:44:23;7.75;;;4.20;;
70363;SDS011;57785;43.898;1.886;2022-07-22T06:46:49;6.97;;;3.97;;
70363;SDS011;57785;43.898;1.886;2022-07-22T06:49:15;6.13;;;4.10;;
70363;SDS011;57785;43.898;1.886;2022-07-22T06:51:41;11.00;;;4.60;;
70363;SDS011;57785;43.898;1.886;2022-07-22T06:54:07;10.30;;;4.50;;
70363;SDS011;57785;43.898;1.886;2022-07-22T06:56:33;6.63;;;4.63;;
70363;SDS011;57785;43.898;1.886;2022-07-22T06:58:59;8.52;;;4.97;;
70363;SDS011;57785;43.898;1.886;2022-07-22T07:01:25;6.75;;;4.80;;
70363;SDS011;57785;43.898;1.886;2022-07-22T07:03:52;6.70;;;4.53;;
70363;SDS011;57785;43.898;1.886;2022-07-22T07:06:18;8.55;;;4.70;;
70363;SDS011;57785;43.898;1.886;2022-07-22T07:08:44;6.97;;;4.88;;
70363;SDS011;57785;43.898;1.886;2022-07-22T07:11:10;6.00;;;4.63;;
70363;SDS011;57785;43.898;1.886;2022-07-22T07:13:36;11.18;;;5.25;;
70363;SDS011;57785;43.898;1.886;2022-07-22T07:16:02;8.20;;;4.95;;
70363;SDS011;57785;43.898;1.886;2022-07-22T07:18:29;5.82;;;4.60;;
70363;SDS011;57785;43.898;1.886;2022-07-22T07:20:55;8.48;;;4.80;;
70363;SDS011;57785;43.898;1.886;2022-07-22T07:23:21;8.45;;;5.25;;
70363;SDS011;57785;43.898;1.886;2022-07-22T07:25:47;6.18;;;4.78;;
70363;SDS011;57785;43.898;1.886;2022-07-22T07:28:13;7.80;;;5.35;;
70363;SDS011;57785;43.898;1.886;2022-07-22T07:30:39;7.97;;;4.97;;
70363;SDS011;57785;43.898;1.886;2022-07-22T07:33:05;13.15;;;5.13;;
70363;SDS011;57785;43.898;1.886;2022-07-22T07:35:31;12.82;;;5.35;;
70363;SDS011;57785;43.898;1.886;2022-07-22T07:37:57;11.27;;;4.85;;
70363;SDS011;57785;43.898;1.886;2022-07-22T07:40:24;8.55;;;5.20;;
70363;SDS011;57785;43.898;1.886;2022-07-22T07:42:50;9.63;;;5.35;;
70363;SDS011;57785;43.898;1.886;2022-07-22T07:45:16;9.45;;;5.15;;
70363;SDS011;57785;43.898;1.886;2022-07-22T16:48:23;11.18;;;4.93;;
70363;SDS011;57785;43.898;1.886;2022-07-22T16:50:49;12.73;;;5.22;;
70363;SDS011;57785;43.898;1.886;2022-07-22T16:53:15;9.98;;;5.03;;
70363;SDS011;57785;43.898;1.886;2022-07-22T16:55:41;16.85;;;4.88;;
70363;SDS011;57785;43.898;1.886;2022-07-22T16:58:08;8.95;;;4.60;;
70363;SDS011;57785;43.898;1.886;2022-07-22T17:00:34;7.13;;;4.30;;
70363;SDS011;57785;43.898;1.886;2022-07-22T17:03:00;9.30;;;4.53;;
70363;SDS011;57785;43.898;1.886;2022-07-22T17:05:26;10.75;;;5.05;;
70363;SDS011;57785;43.898;1.886;2022-07-22T17:07:52;9.30;;;4.68;;
70363;SDS011;57785;43.898;1.886;2022-07-22T17:10:18;15.30;;;5.70;;
70363;SDS011;57785;43.898;1.886;2022-07-22T17:12:45;9.63;;;4.97;;
70363;SDS011;57785;43.898;1.886;2022-07-22T17:15:11;9.82;;;5.85;;
70363;SDS011;57785;43.898;1.886;2022-07-22T17:17:37;12.40;;;4.82;;
70363;SDS011;57785;43.898;1.886;2022-07-22T17:20:03;13.40;;;4.65;;
70363;SDS011;57785;43.898;1.886;2022-07-22T17:22:30;15.52;;;5.07;;
70363;SDS011;57785;43.898;1.886;2022-07-22T17:24:58;9.50;;;4.20;;
70363;SDS011;57785;43.898;1.886;2022-07-22T17:27:24;10.77;;;4.82;;
70363;SDS011;57785;43.898;1.886;2022-07-22T17:29:50;9.65;;;4.50;;
70363;SDS011;57785;43.898;1.886;2022-07-22T17:32:16;8.93;;;4.40;;
70363;SDS011;57785;43.898;1.886;2022-07-22T17:34:42;8.13;;;4.30;;
70363;SDS011;57785;43.898;1.886;2022-07-22T17:37:08;8.80;;;4.80;;
70363;SDS011;57785;43.898;1.886;2022-07-22T17:39:34;8.60;;;4.28;;
70363;SDS011;57785;43.898;1.886;2022-07-22T17:42:01;7.60;;;4.10;;
70363;SDS011;57785;43.898;1.886;2022-07-22T17:44:27;8.45;;;4.47;;
70363;SDS011;57785;43.898;1.886;2022-07-22T17:46:54;9.50;;;4.13;;
70363;SDS011;57785;43.898;1.886;2022-07-22T17:49:20;6.97;;;4.13;;
70363;SDS011;57785;43.898;1.886;2022-07-22T17:51:46;8.52;;;4.60;;
70363;SDS011;57785;43.898;1.886;2022-07-22T17:54:12;12.60;;;4.63;;
70363;SDS011;57785;43.898;1.886;2022-07-22T17:56:39;11.57;;;4.57;;
70363;SDS011;57785;43.898;1.886;2022-07-22T17:59:05;9.82;;;4.43;;
70363;SDS011;57785;43.898;1.886;2022-07-22T18:01:32;11.10;;;4.25;;
70363;SDS011;57785;43.898;1.886;2022-07-22T18:03:58;8.98;;;4.70;;
70363;SDS011;57785;43.898;1.886;2022-07-22T18:06:24;9.23;;;4.88;;
70363;SDS011;57785;43.898;1.886;2022-07-22T18:08:50;7.65;;;4.70;;
70363;SDS011;57785;43.898;1.886;2022-07-22T18:11:16;9.07;;;4.90;;
70363;SDS011;57785;43.898;1.886;2022-07-22T18:13:42;9.93;;;4.40;;
70363;SDS011;57785;43.898;1.886;2022-07-22T18:16:09;7.72;;;4.75;;
70363;SDS011;57785;43.898;1.886;2022-07-22T18:18:35;9.48;;;4.30;;
70363;SDS011;57785;43.898;1.886;2022-07-22T18:21:01;9.45;;;4.63;;
70363;SDS011;57785;43.898;1.886;2022-07-22T18:23:27;10.57;;;4.85;;
70363;SDS011;57785;43.898;1.886;2022-07-22T18:25:53;10.48;;;4.50;;
70363;SDS011;57785;43.898;1.886;2022-07-22T18:28:19;8.10;;;4.32;;
70363;SDS011;57785;43.898;1.886;2022-07-22T18:30:45;9.70;;;4.53;;
70363;SDS011;57785;43.898;1.886;2022-07-22T18:33:13;8.70;;;4.53;;
70363;SDS011;57785;43.898;1.886;2022-07-22T18:35:40;9.75;;;4.32;;
70363;SDS011;57785;43.898;1.886;2022-07-22T18:38:06;8.65;;;4.75;;
70363;SDS011;57785;43.898;1.886;2022-07-22T18:40:32;6.63;;;4.28;;
70363;SDS011;57785;43.898;1.886;2022-07-22T18:42:59;9.82;;;4.60;;
70363;SDS011;57785;43.898;1.886;2022-07-22T18:45:25;9.38;;;4.40;;
70363;SDS011;57785;43.898;1.886;2022-07-22T18:47:51;7.70;;;4.30;;
70363;SDS011;57785;43.898;1.886;2022-07-22T18:50:17;9.57;;;4.22;;
70363;SDS011;57785;43.898;1.886;2022-07-22T18:52:44;7.32;;;4.25;;
70363;SDS011;57785;43.898;1.886;2022-07-22T18:55:10;7.25;;;4.18;;
70363;SDS011;57785;43.898;1.886;2022-07-22T18:57:36;6.50;;;3.95;;
70363;SDS011;57785;43.898;1.886;2022-07-22T19:00:02;6.15;;;4.43;;
70363;SDS011;57785;43.898;1.886;2022-07-22T19:02:28;9.70;;;4.63;;
70363;SDS011;57785;43.898;1.886;2022-07-22T19:04:55;6.82;;;4.38;;
70363;SDS011;57785;43.898;1.886;2022-07-22T19:07:21;9.57;;;4.47;;
70363;SDS011;57785;43.898;1.886;2022-07-22T19:09:47;8.10;;;4.13;;
70363;SDS011;57785;43.898;1.886;2022-07-22T19:12:13;6.82;;;4.53;;
70363;SDS011;57785;43.898;1.886;2022-07-22T19:14:39;6.95;;;4.63;;
70363;SDS011;57785;43.898;1.886;2022-07-22T19:17:05;9.50;;;4.40;;
70363;SDS011;57785;43.898;1.886;2022-07-22T19:19:31;9.05;;;3.97;;
70363;SDS011;57785;43.898;1.886;2022-07-22T19:21:57;12.48;;;3.70;;
70363;SDS011;57785;43.898;1.886;2022-07-22T19:24:23;7.63;;;3.30;;
70363;SDS011;57785;43.898;1.886;2022-07-22T19:26:50;8.27;;;3.28;;
70363;SDS011;57785;43.898;1.886;2022-07-22T19:29:16;9.43;;;3.72;;
70363;SDS011;57785;43.898;1.886;2022-07-22T19:31:42;6.47;;;3.20;;
70363;SDS011;57785;43.898;1.886;2022-07-22T19:34:08;10.32;;;3.60;;
70363;SDS011;57785;43.898;1.886;2022-07-22T19:36:34;22.77;;;4.22;;
70363;SDS011;57785;43.898;1.886;2022-07-22T19:39:00;11.38;;;3.40;;
70363;SDS011;57785;43.898;1.886;2022-07-22T19:41:27;7.88;;;3.47;;
70363;SDS011;57785;43.898;1.886;2022-07-22T19:43:53;7.78;;;2.80;;
70363;SDS011;57785;43.898;1.886;2022-07-22T19:46:19;7.93;;;2.72;;
70363;SDS011;57785;43.898;1.886;2022-07-22T19:48:46;5.97;;;2.72;;
70363;SDS011;57785;43.898;1.886;2022-07-22T19:51:12;9.05;;;2.60;;
70363;SDS011;57785;43.898;1.886;2022-07-22T19:53:38;9.52;;;2.90;;
70363;SDS011;57785;43.898;1.886;2022-07-22T19:56:04;7.80;;;2.55;;
70363;SDS011;57785;43.898;1.886;2022-07-22T19:58:30;8.18;;;2.47;;
70363;SDS011;57785;43.898;1.886;2022-07-22T20:00:56;5.55;;;2.50;;
70363;SDS011;57785;43.898;1.886;2022-07-22T20:03:23;7.20;;;2.70;;
70363;SDS011;57785;43.898;1.886;2022-07-22T20:05:49;7.78;;;2.85;;
70363;SDS011;57785;43.898;1.886;2022-07-22T20:08:15;8.05;;;2.70;;
70363;SDS011;57785;43.898;1.886;2022-07-22T20:10:42;5.30;;;2.63;;
70363;SDS011;57785;43.898;1.886;2022-07-22T20:13:08;5.32;;;2.30;;
70363;SDS011;57785;43.898;1.886;2022-07-22T20:15:34;14.73;;;2.78;;
70363;SDS011;57785;43.898;1.886;2022-07-22T20:18:01;6.32;;;2.58;;
70363;SDS011;57785;43.898;1.886;2022-07-22T20:20:27;15.10;;;2.97;;
70363;SDS011;57785;43.898;1.886;2022-07-22T20:22:53;9.07;;;2.58;;
70363;SDS011;57785;43.898;1.886;2022-07-22T20:25:20;5.45;;;2.30;;
70363;SDS011;57785;43.898;1.886;2022-07-22T20:27:46;6.63;;;2.60;;
70363;SDS011;57785;43.898;1.886;2022-07-22T20:30:12;7.47;;;3.08;;
70363;SDS011;57785;43.898;1.886;2022-07-22T20:32:39;5.75;;;2.53;;
70363;SDS011;57785;43.898;1.886;2022-07-22T20:35:05;4.97;;;2.40;;
70363;SDS011;57785;43.898;1.886;2022-07-22T20:37:31;4.53;;;2.38;;
70363;SDS011;57785;43.898;1.886;2022-07-22T20:39:57;5.85;;;2.67;;
70363;SDS011;57785;43.898;1.886;2022-07-22T20:42:23;5.85;;;2.20;;
70363;SDS011;57785;43.898;1.886;2022-07-22T20:44:49;4.95;;;2.40;;
70363;SDS011;57785;43.898;1.886;2022-07-22T20:47:15;7.45;;;2.75;;
70363;SDS011;57785;43.898;1.886;2022-07-22T20:49:42;7.20;;;2.30;;
70363;SDS011;57785;43.898;1.886;2022-07-22T20:52:08;7.10;;;2.45;;
70363;SDS011;57785;43.898;1.886;2022-07-22T20:54:34;6.38;;;2.50;;
70363;SDS011;57785;43.898;1.886;2022-07-22T20:57:00;7.35;;;2.50;;
70363;SDS011;57785;43.898;1.886;2022-07-22T20:59:26;5.72;;;2.50;;
70363;SDS011;57785;43.898;1.886;2022-07-22T21:01:52;6.50;;;2.47;;
70363;SDS011;57785;43.898;1.886;2022-07-22T21:04:18;8.30;;;2.60;;
70363;SDS011;57785;43.898;1.886;2022-07-22T21:06:44;7.10;;;2.53;;
70363;SDS011;57785;43.898;1.886;2022-07-22T21:09:10;9.75;;;2.58;;
70363;SDS011;57785;43.898;1.886;2022-07-22T21:11:36;7.32;;;2.70;;
70363;SDS011;57785;43.898;1.886;2022-07-22T21:14:02;12.27;;;3.00;;
70363;SDS011;57785;43.898;1.886;2022-07-22T21:16:28;6.65;;;2.47;;
70363;SDS011;57785;43.898;1.886;2022-07-22T21:18:54;5.53;;;2.53;;
70363;SDS011;57785;43.898;1.886;2022-07-22T21:21:21;7.28;;;2.38;;
70363;SDS011;57785;43.898;1.886;2022-07-22T21:23:47;8.57;;;2.80;;
70363;SDS011;57785;43.898;1.886;2022-07-22T21:26:13;9.95;;;2.70;;
70363;SDS011;57785;43.898;1.886;2022-07-22T21:28:39;6.05;;;2.33;;
70363;SDS011;57785;43.898;1.886;2022-07-22T21:31:05;7.72;;;2.58;;
70363;SDS011;57785;43.898;1.886;2022-07-22T21:33:31;7.47;;;2.40;;
70363;SDS011;57785;43.898;1.886;2022-07-22T21:35:58;5.43;;;2.13;;
70363;SDS011;57785;43.898;1.886;2022-07-22T21:38:24;5.47;;;2.45;;
70363;SDS011;57785;43.898;1.886;2022-07-22T21:40:50;4.95;;;2.25;;
70363;SDS011;57785;43.898;1.886;2022-07-22T21:43:18;6.65;;;2.80;;
70363;SDS011;57785;43.898;1.886;2022-07-22T21:45:44;6.93;;;2.33;;
70363;SDS011;57785;43.898;1.886;2022-07-22T21:48:15;5.57;;;2.40;;
70363;SDS011;57785;43.898;1.886;2022-07-22T21:50:42;5.50;;;2.25;;
70363;SDS011;57785;43.898;1.886;2022-07-22T21:53:09;6.68;;;2.53;;
70363;SDS011;57785;43.898;1.886;2022-07-22T21:55:35;4.30;;;2.25;;
70363;SDS011;57785;43.898;1.886;2022-07-22T21:58:01;7.13;;;2.67;;
70363;SDS011;57785;43.898;1.886;2022-07-22T22:00:28;4.70;;;2.45;;
70363;SDS011;57785;43.898;1.886;2022-07-22T22:02:54;7.00;;;2.45;;
70363;SDS011;57785;43.898;1.886;2022-07-22T22:05:20;4.30;;;2.25;;
70363;SDS011;57785;43.898;1.886;2022-07-22T22:07:46;4.43;;;2.33;;
70363;SDS011;57785;43.898;1.886;2022-07-22T22:10:12;6.18;;;2.40;;
70363;SDS011;57785;43.898;1.886;2022-07-22T22:12:38;7.78;;;2.35;;
70363;SDS011;57785;43.898;1.886;2022-07-22T22:15:04;8.20;;;2.53;;
70363;SDS011;57785;43.898;1.886;2022-07-22T22:17:31;5.32;;;2.53;;
70363;SDS011;57785;43.898;1.886;2022-07-22T22:19:57;5.43;;;2.70;;
70363;SDS011;57785;43.898;1.886;2022-07-22T22:22:23;5.55;;;2.45;;
70363;SDS011;57785;43.898;1.886;2022-07-22T22:24:49;6.50;;;2.25;;
70363;SDS011;57785;43.898;1.886;2022-07-22T22:27:15;7.55;;;2.70;;
70363;SDS011;57785;43.898;1.886;2022-07-22T22:29:41;7.00;;;2.38;;
70363;SDS011;57785;43.898;1.886;2022-07-22T22:32:07;5.43;;;2.30;;
70363;SDS011;57785;43.898;1.886;2022-07-22T22:34:33;5.70;;;2.65;;
70363;SDS011;57785;43.898;1.886;2022-07-22T22:37:00;6.93;;;2.53;;
70363;SDS011;57785;43.898;1.886;2022-07-22T22:39:26;5.63;;;2.65;;
70363;SDS011;57785;43.898;1.886;2022-07-22T22:41:52;5.03;;;2.17;;
70363;SDS011;57785;43.898;1.886;2022-07-22T22:44:18;8.05;;;2.80;;
70363;SDS011;57785;43.898;1.886;2022-07-22T22:46:44;10.27;;;2.80;;
70363;SDS011;57785;43.898;1.886;2022-07-22T22:49:10;7.00;;;2.55;;
70363;SDS011;57785;43.898;1.886;2022-07-22T22:51:36;8.82;;;2.85;;
70363;SDS011;57785;43.898;1.886;2022-07-22T22:54:02;6.22;;;2.50;;
70363;SDS011;57785;43.898;1.886;2022-07-22T22:56:29;6.07;;;2.58;;
70363;SDS011;57785;43.898;1.886;2022-07-22T22:58:55;5.53;;;2.30;;
70363;SDS011;57785;43.898;1.886;2022-07-22T23:01:21;6.63;;;2.33;;
